sensor_id;sensor_type;location;lat;lon;timestamp;P1;durP1;ratioP1;P2;durP2;ratioP2
69511;SDS011;70777;52.034;4.644;2023-11-21T00:02:14;15.60;;;7.93;;
69511;SDS011;70777;52.034;4.644;2023-11-21T00:04:40;18.05;;;8.13;;
69511;SDS011;70777;52.034;4.644;2023-11-21T00:07:05;14.18;;;7.80;;
69511;SDS011;70777;52.034;4.644;2023-11-21T00:09:32;13.23;;;7.55;;
69511;SDS011;70777;52.034;4.644;2023-11-21T00:11:58;16.83;;;7.80;;
69511;SDS011;70777;52.034;4.644;2023-11-21T00:14:24;15.60;;;8.00;;
69511;SDS011;70777;52.034;4.644;2023-11-21T00:16:50;17.15;;;8.45;;
69511;SDS011;70777;52.034;4.644;2023-11-21T00:19:16;15.75;;;7.82;;
69511;SDS011;70777;52.034;4.644;2023-11-21T00:21:41;17.30;;;7.75;;
69511;SDS011;70777;52.034;4.644;2023-11-21T00:26:34;14.60;;;7.13;;
69511;SDS011;70777;52.034;4.644;2023-11-21T00:29:02;16.05;;;8.63;;
69511;SDS011;70777;52.034;4.644;2023-11-21T00:31:27;18.52;;;8.40;;
69511;SDS011;70777;52.034;4.644;2023-11-21T00:33:53;15.43;;;7.28;;
69511;SDS011;70777;52.034;4.644;2023-11-21T00:36:19;13.97;;;7.43;;
69511;SDS011;70777;52.034;4.644;2023-11-21T00:38:45;15.25;;;7.10;;
69511;SDS011;70777;52.034;4.644;2023-11-21T00:41:13;13.30;;;7.88;;
69511;SDS011;70777;52.034;4.644;2023-11-21T00:43:39;16.00;;;8.10;;
69511;SDS011;70777;52.034;4.644;2023-11-21T00:46:05;21.92;;;8.25;;
69511;SDS011;70777;52.034;4.644;2023-11-21T00:48:33;15.32;;;7.63;;
69511;SDS011;70777;52.034;4.644;2023-11-21T00:50:59;15.70;;;7.15;;
69511;SDS011;70777;52.034;4.644;2023-11-21T00:53:25;22.95;;;7.72;;
69511;SDS011;70777;52.034;4.644;2023-11-21T00:55:50;16.15;;;7.30;;
69511;SDS011;70777;52.034;4.644;2023-11-21T00:58:17;13.93;;;7.55;;
69511;SDS011;70777;52.034;4.644;2023-11-21T01:00:42;17.73;;;7.25;;
69511;SDS011;70777;52.034;4.644;2023-11-21T01:03:08;15.27;;;7.10;;
69511;SDS011;70777;52.034;4.644;2023-11-21T01:05:34;13.55;;;7.15;;
69511;SDS011;70777;52.034;4.644;2023-11-21T01:07:59;17.85;;;7.80;;
69511;SDS011;70777;52.034;4.644;2023-11-21T01:10:25;16.75;;;7.63;;
69511;SDS011;70777;52.034;4.644;2023-11-21T01:12:50;18.48;;;7.80;;
69511;SDS011;70777;52.034;4.644;2023-11-21T01:15:16;13.80;;;7.95;;
69511;SDS011;70777;52.034;4.644;2023-11-21T01:17:41;20.52;;;7.65;;
69511;SDS011;70777;52.034;4.644;2023-11-21T01:20:08;17.80;;;7.38;;
69511;SDS011;70777;52.034;4.644;2023-11-21T01:22:39;17.88;;;8.45;;
69511;SDS011;70777;52.034;4.644;2023-11-21T01:25:05;21.55;;;9.10;;
69511;SDS011;70777;52.034;4.644;2023-11-21T01:27:35;16.13;;;7.55;;
69511;SDS011;70777;52.034;4.644;2023-11-21T01:30:03;18.75;;;8.27;;
69511;SDS011;70777;52.034;4.644;2023-11-21T01:32:29;15.80;;;8.18;;
69511;SDS011;70777;52.034;4.644;2023-11-21T01:34:54;17.98;;;8.85;;
69511;SDS011;70777;52.034;4.644;2023-11-21T01:37:20;15.80;;;9.02;;
69511;SDS011;70777;52.034;4.644;2023-11-21T01:39:46;20.15;;;8.80;;
69511;SDS011;70777;52.034;4.644;2023-11-21T01:42:13;13.20;;;6.95;;
69511;SDS011;70777;52.034;4.644;2023-11-21T01:44:39;15.37;;;7.93;;
69511;SDS011;70777;52.034;4.644;2023-11-21T01:47:07;20.52;;;7.30;;
69511;SDS011;70777;52.034;4.644;2023-11-21T01:49:33;14.77;;;6.73;;
69511;SDS011;70777;52.034;4.644;2023-11-21T01:51:58;17.00;;;7.28;;
69511;SDS011;70777;52.034;4.644;2023-11-21T01:54:24;20.02;;;6.63;;
69511;SDS011;70777;52.034;4.644;2023-11-21T01:56:50;20.77;;;8.02;;
69511;SDS011;70777;52.034;4.644;2023-11-21T01:59:17;20.17;;;8.57;;
69511;SDS011;70777;52.034;4.644;2023-11-21T02:01:45;21.60;;;8.63;;
69511;SDS011;70777;52.034;4.644;2023-11-21T02:04:12;19.77;;;8.93;;
69511;SDS011;70777;52.034;4.644;2023-11-21T02:06:39;22.38;;;9.32;;
69511;SDS011;70777;52.034;4.644;2023-11-21T02:09:04;23.48;;;9.70;;
69511;SDS011;70777;52.034;4.644;2023-11-21T02:11:30;21.05;;;9.10;;
69511;SDS011;70777;52.034;4.644;2023-11-21T02:13:56;25.23;;;9.60;;
69511;SDS011;70777;52.034;4.644;2023-11-21T02:16:24;32.97;;;12.02;;
69511;SDS011;70777;52.034;4.644;2023-11-21T02:18:55;24.17;;;10.15;;
69511;SDS011;70777;52.034;4.644;2023-11-21T02:21:26;24.52;;;11.30;;
69511;SDS011;70777;52.034;4.644;2023-11-21T02:23:52;30.33;;;10.48;;
69511;SDS011;70777;52.034;4.644;2023-11-21T02:26:17;23.63;;;9.48;;
69511;SDS011;70777;52.034;4.644;2023-11-21T02:28:43;23.48;;;9.65;;
69511;SDS011;70777;52.034;4.644;2023-11-21T02:31:08;22.27;;;9.35;;
69511;SDS011;70777;52.034;4.644;2023-11-21T02:33:34;26.17;;;11.18;;
69511;SDS011;70777;52.034;4.644;2023-11-21T02:36:00;23.77;;;9.57;;
69511;SDS011;70777;52.034;4.644;2023-11-21T02:38:26;28.33;;;10.98;;
69511;SDS011;70777;52.034;4.644;2023-11-21T02:40:51;22.80;;;9.75;;
69511;SDS011;70777;52.034;4.644;2023-11-21T02:43:17;23.45;;;9.23;;
69511;SDS011;70777;52.034;4.644;2023-11-21T02:45:42;20.33;;;8.60;;
69511;SDS011;70777;52.034;4.644;2023-11-21T02:48:07;24.88;;;8.77;;
69511;SDS011;70777;52.034;4.644;2023-11-21T02:50:33;19.13;;;8.70;;
69511;SDS011;70777;52.034;4.644;2023-11-21T02:53:00;18.63;;;9.23;;
69511;SDS011;70777;52.034;4.644;2023-11-21T02:55:26;34.47;;;10.05;;
69511;SDS011;70777;52.034;4.644;2023-11-21T02:57:54;21.63;;;9.45;;
69511;SDS011;70777;52.034;4.644;2023-11-21T03:00:22;23.42;;;9.57;;
69511;SDS011;70777;52.034;4.644;2023-11-21T03:02:49;20.20;;;9.05;;
69511;SDS011;70777;52.034;4.644;2023-11-21T03:05:15;19.73;;;8.35;;
69511;SDS011;70777;52.034;4.644;2023-11-21T03:07:40;20.73;;;8.73;;
69511;SDS011;70777;52.034;4.644;2023-11-21T03:10:06;18.00;;;8.50;;
69511;SDS011;70777;52.034;4.644;2023-11-21T03:12:34;22.27;;;8.95;;
69511;SDS011;70777;52.034;4.644;2023-11-21T03:15:03;18.15;;;7.22;;
69511;SDS011;70777;52.034;4.644;2023-11-21T03:17:34;17.85;;;8.30;;
69511;SDS011;70777;52.034;4.644;2023-11-21T03:20:00;21.88;;;8.80;;
69511;SDS011;70777;52.034;4.644;2023-11-21T03:22:25;21.10;;;8.55;;
69511;SDS011;70777;52.034;4.644;2023-11-21T03:24:51;20.05;;;8.73;;
69511;SDS011;70777;52.034;4.644;2023-11-21T03:27:20;14.98;;;6.95;;
69511;SDS011;70777;52.034;4.644;2023-11-21T03:29:46;23.25;;;8.65;;
69511;SDS011;70777;52.034;4.644;2023-11-21T03:32:12;20.20;;;8.00;;
69511;SDS011;70777;52.034;4.644;2023-11-21T03:34:52;16.60;;;8.23;;
69511;SDS011;70777;52.034;4.644;2023-11-21T03:37:31;22.17;;;8.48;;
69511;SDS011;70777;52.034;4.644;2023-11-21T03:39:56;19.00;;;8.50;;
69511;SDS011;70777;52.034;4.644;2023-11-21T03:42:22;25.75;;;9.15;;
69511;SDS011;70777;52.034;4.644;2023-11-21T03:44:47;16.73;;;8.55;;
69511;SDS011;70777;52.034;4.644;2023-11-21T03:47:12;18.30;;;7.55;;
69511;SDS011;70777;52.034;4.644;2023-11-21T03:49:38;19.65;;;8.30;;
69511;SDS011;70777;52.034;4.644;2023-11-21T03:52:04;18.13;;;8.40;;
69511;SDS011;70777;52.034;4.644;2023-11-21T03:54:29;21.48;;;8.38;;
69511;SDS011;70777;52.034;4.644;2023-11-21T03:56:55;20.77;;;8.25;;
69511;SDS011;70777;52.034;4.644;2023-11-21T03:59:21;17.00;;;8.32;;
69511;SDS011;70777;52.034;4.644;2023-11-21T04:01:50;19.52;;;7.90;;
69511;SDS011;70777;52.034;4.644;2023-11-21T04:04:15;16.08;;;7.10;;
69511;SDS011;70777;52.034;4.644;2023-11-21T04:06:42;21.38;;;8.95;;
69511;SDS011;70777;52.034;4.644;2023-11-21T04:09:07;17.88;;;8.10;;
69511;SDS011;70777;52.034;4.644;2023-11-21T04:11:33;27.05;;;8.48;;
69511;SDS011;70777;52.034;4.644;2023-11-21T04:14:00;19.70;;;8.35;;
69511;SDS011;70777;52.034;4.644;2023-11-21T04:16:25;18.75;;;8.57;;
69511;SDS011;70777;52.034;4.644;2023-11-21T04:18:51;24.40;;;8.82;;
69511;SDS011;70777;52.034;4.644;2023-11-21T04:21:16;22.58;;;9.48;;
69511;SDS011;70777;52.034;4.644;2023-11-21T04:23:42;22.58;;;8.15;;
69511;SDS011;70777;52.034;4.644;2023-11-21T04:26:07;21.90;;;8.75;;
69511;SDS011;70777;52.034;4.644;2023-11-21T04:28:32;21.63;;;8.68;;
69511;SDS011;70777;52.034;4.644;2023-11-21T04:30:58;19.83;;;8.38;;
69511;SDS011;70777;52.034;4.644;2023-11-21T04:33:23;21.65;;;8.05;;
69511;SDS011;70777;52.034;4.644;2023-11-21T04:35:50;21.65;;;7.88;;
69511;SDS011;70777;52.034;4.644;2023-11-21T04:38:16;20.15;;;8.63;;
69511;SDS011;70777;52.034;4.644;2023-11-21T04:40:41;22.38;;;8.18;;
69511;SDS011;70777;52.034;4.644;2023-11-21T04:43:09;24.40;;;8.77;;
69511;SDS011;70777;52.034;4.644;2023-11-21T04:45:35;21.30;;;8.70;;
69511;SDS011;70777;52.034;4.644;2023-11-21T04:48:00;24.27;;;8.57;;
69511;SDS011;70777;52.034;4.644;2023-11-21T04:50:25;16.83;;;7.57;;
69511;SDS011;70777;52.034;4.644;2023-11-21T04:52:52;20.30;;;8.00;;
69511;SDS011;70777;52.034;4.644;2023-11-21T04:55:18;17.27;;;7.57;;
69511;SDS011;70777;52.034;4.644;2023-11-21T04:57:45;17.77;;;7.63;;
69511;SDS011;70777;52.034;4.644;2023-11-21T05:00:12;17.55;;;8.30;;
69511;SDS011;70777;52.034;4.644;2023-11-21T05:02:42;20.75;;;7.40;;
69511;SDS011;70777;52.034;4.644;2023-11-21T05:05:09;16.90;;;7.60;;
69511;SDS011;70777;52.034;4.644;2023-11-21T05:07:35;25.55;;;8.00;;
69511;SDS011;70777;52.034;4.644;2023-11-21T05:10:04;22.33;;;8.55;;
69511;SDS011;70777;52.034;4.644;2023-11-21T05:12:36;17.15;;;7.55;;
69511;SDS011;70777;52.034;4.644;2023-11-21T05:15:04;23.70;;;7.57;;
69511;SDS011;70777;52.034;4.644;2023-11-21T05:17:35;18.25;;;7.78;;
69511;SDS011;70777;52.034;4.644;2023-11-21T05:20:01;19.92;;;8.07;;
69511;SDS011;70777;52.034;4.644;2023-11-21T05:22:33;20.25;;;7.60;;
69511;SDS011;70777;52.034;4.644;2023-11-21T05:24:59;18.30;;;7.72;;
69511;SDS011;70777;52.034;4.644;2023-11-21T05:27:25;17.73;;;8.40;;
69511;SDS011;70777;52.034;4.644;2023-11-21T05:29:50;14.68;;;7.30;;
69511;SDS011;70777;52.034;4.644;2023-11-21T05:32:16;20.60;;;7.20;;
69511;SDS011;70777;52.034;4.644;2023-11-21T05:34:42;17.27;;;6.93;;
69511;SDS011;70777;52.034;4.644;2023-11-21T05:37:08;18.02;;;7.90;;
69511;SDS011;70777;52.034;4.644;2023-11-21T05:39:33;24.35;;;7.65;;
69511;SDS011;70777;52.034;4.644;2023-11-21T05:41:58;18.25;;;7.40;;
69511;SDS011;70777;52.034;4.644;2023-11-21T05:44:27;16.27;;;7.13;;
69511;SDS011;70777;52.034;4.644;2023-11-21T05:47:11;19.65;;;7.63;;
69511;SDS011;70777;52.034;4.644;2023-11-21T05:49:38;24.67;;;7.93;;
69511;SDS011;70777;52.034;4.644;2023-11-21T05:52:04;14.65;;;7.07;;
69511;SDS011;70777;52.034;4.644;2023-11-21T05:54:30;15.90;;;6.80;;
69511;SDS011;70777;52.034;4.644;2023-11-21T05:56:55;17.33;;;7.20;;
69511;SDS011;70777;52.034;4.644;2023-11-21T05:59:22;17.77;;;6.72;;
69511;SDS011;70777;52.034;4.644;2023-11-21T06:01:48;15.07;;;7.00;;
69511;SDS011;70777;52.034;4.644;2023-11-21T06:04:13;18.23;;;6.80;;
69511;SDS011;70777;52.034;4.644;2023-11-21T06:06:39;19.80;;;8.18;;
69511;SDS011;70777;52.034;4.644;2023-11-21T06:09:05;13.95;;;6.97;;
69511;SDS011;70777;52.034;4.644;2023-11-21T06:11:37;17.75;;;6.88;;
69511;SDS011;70777;52.034;4.644;2023-11-21T06:14:06;15.23;;;6.63;;
69511;SDS011;70777;52.034;4.644;2023-11-21T06:16:34;16.48;;;7.20;;
69511;SDS011;70777;52.034;4.644;2023-11-21T06:18:59;13.45;;;6.95;;
69511;SDS011;70777;52.034;4.644;2023-11-21T06:21:27;15.10;;;7.10;;
69511;SDS011;70777;52.034;4.644;2023-11-21T06:23:53;14.45;;;6.38;;
69511;SDS011;70777;52.034;4.644;2023-11-21T06:26:18;14.30;;;7.28;;
69511;SDS011;70777;52.034;4.644;2023-11-21T06:28:44;20.45;;;7.57;;
69511;SDS011;70777;52.034;4.644;2023-11-21T06:31:10;18.45;;;6.57;;
69511;SDS011;70777;52.034;4.644;2023-11-21T06:33:35;15.60;;;6.68;;
69511;SDS011;70777;52.034;4.644;2023-11-21T06:36:04;14.10;;;6.45;;
69511;SDS011;70777;52.034;4.644;2023-11-21T06:38:31;13.30;;;6.18;;
69511;SDS011;70777;52.034;4.644;2023-11-21T06:40:57;13.25;;;6.38;;
69511;SDS011;70777;52.034;4.644;2023-11-21T06:43:23;14.82;;;6.43;;
69511;SDS011;70777;52.034;4.644;2023-11-21T06:45:48;11.32;;;6.50;;
69511;SDS011;70777;52.034;4.644;2023-11-21T06:48:14;13.85;;;6.10;;
69511;SDS011;70777;52.034;4.644;2023-11-21T06:50:40;16.65;;;7.40;;
69511;SDS011;70777;52.034;4.644;2023-11-21T06:53:05;16.75;;;6.78;;
69511;SDS011;70777;52.034;4.644;2023-11-21T06:55:32;14.60;;;7.30;;
69511;SDS011;70777;52.034;4.644;2023-11-21T06:57:58;15.05;;;6.80;;
69511;SDS011;70777;52.034;4.644;2023-11-21T07:00:25;19.00;;;7.25;;
69511;SDS011;70777;52.034;4.644;2023-11-21T07:02:55;15.77;;;6.75;;
69511;SDS011;70777;52.034;4.644;2023-11-21T07:05:22;14.60;;;6.88;;
69511;SDS011;70777;52.034;4.644;2023-11-21T07:07:51;13.77;;;6.70;;
69511;SDS011;70777;52.034;4.644;2023-11-21T07:10:17;18.15;;;6.00;;
69511;SDS011;70777;52.034;4.644;2023-11-21T07:12:43;17.55;;;6.53;;
69511;SDS011;70777;52.034;4.644;2023-11-21T07:15:08;11.85;;;6.30;;
69511;SDS011;70777;52.034;4.644;2023-11-21T07:17:37;15.05;;;6.20;;
69511;SDS011;70777;52.034;4.644;2023-11-21T07:20:03;17.90;;;6.47;;
69511;SDS011;70777;52.034;4.644;2023-11-21T07:22:30;19.90;;;6.97;;
69511;SDS011;70777;52.034;4.644;2023-11-21T07:24:55;16.95;;;7.07;;
69511;SDS011;70777;52.034;4.644;2023-11-21T07:27:27;18.20;;;6.45;;
69511;SDS011;70777;52.034;4.644;2023-11-21T07:29:54;19.52;;;6.60;;
69511;SDS011;70777;52.034;4.644;2023-11-21T07:32:20;17.00;;;6.00;;
69511;SDS011;70777;52.034;4.644;2023-11-21T07:34:45;22.13;;;6.32;;
69511;SDS011;70777;52.034;4.644;2023-11-21T07:37:11;17.67;;;5.47;;
69511;SDS011;70777;52.034;4.644;2023-11-21T07:39:37;15.15;;;5.65;;
69511;SDS011;70777;52.034;4.644;2023-11-21T07:42:02;20.27;;;5.78;;
69511;SDS011;70777;52.034;4.644;2023-11-21T07:44:29;14.70;;;4.80;;
69511;SDS011;70777;52.034;4.644;2023-11-21T07:46:54;18.42;;;4.85;;
69511;SDS011;70777;52.034;4.644;2023-11-21T07:49:23;17.70;;;5.53;;
69511;SDS011;70777;52.034;4.644;2023-11-21T07:51:49;13.75;;;4.85;;
69511;SDS011;70777;52.034;4.644;2023-11-21T07:54:15;12.85;;;4.88;;
69511;SDS011;70777;52.034;4.644;2023-11-21T07:56:41;15.18;;;5.32;;
69511;SDS011;70777;52.034;4.644;2023-11-21T07:59:06;16.17;;;4.85;;
69511;SDS011;70777;52.034;4.644;2023-11-21T08:01:31;17.38;;;5.35;;
69511;SDS011;70777;52.034;4.644;2023-11-21T08:03:58;10.07;;;5.30;;
69511;SDS011;70777;52.034;4.644;2023-11-21T08:06:26;14.73;;;4.88;;
69511;SDS011;70777;52.034;4.644;2023-11-21T08:08:52;12.60;;;5.30;;
69511;SDS011;70777;52.034;4.644;2023-11-21T08:11:17;13.43;;;5.30;;
69511;SDS011;70777;52.034;4.644;2023-11-21T08:13:44;11.13;;;5.32;;
69511;SDS011;70777;52.034;4.644;2023-11-21T08:16:10;12.30;;;5.60;;
69511;SDS011;70777;52.034;4.644;2023-11-21T08:18:37;14.67;;;5.20;;
69511;SDS011;70777;52.034;4.644;2023-11-21T08:21:05;12.40;;;5.45;;
69511;SDS011;70777;52.034;4.644;2023-11-21T08:23:30;12.55;;;5.75;;
69511;SDS011;70777;52.034;4.644;2023-11-21T08:25:56;14.95;;;4.75;;
69511;SDS011;70777;52.034;4.644;2023-11-21T08:28:21;14.57;;;5.05;;
69511;SDS011;70777;52.034;4.644;2023-11-21T08:30:49;13.25;;;5.20;;
69511;SDS011;70777;52.034;4.644;2023-11-21T08:33:15;13.82;;;5.55;;
69511;SDS011;70777;52.034;4.644;2023-11-21T08:35:41;15.60;;;4.90;;
69511;SDS011;70777;52.034;4.644;2023-11-21T08:38:07;15.63;;;5.47;;
69511;SDS011;70777;52.034;4.644;2023-11-21T08:40:34;17.65;;;5.95;;
69511;SDS011;70777;52.034;4.644;2023-11-21T08:43:00;11.80;;;5.78;;
69511;SDS011;70777;52.034;4.644;2023-11-21T08:45:25;14.32;;;6.05;;
69511;SDS011;70777;52.034;4.644;2023-11-21T08:47:51;13.35;;;6.22;;
69511;SDS011;70777;52.034;4.644;2023-11-21T08:50:16;17.52;;;6.22;;
69511;SDS011;70777;52.034;4.644;2023-11-21T08:52:44;19.73;;;7.00;;
69511;SDS011;70777;52.034;4.644;2023-11-21T08:55:11;19.88;;;6.90;;
69511;SDS011;70777;52.034;4.644;2023-11-21T08:57:37;15.05;;;6.85;;
69511;SDS011;70777;52.034;4.644;2023-11-21T09:00:04;12.83;;;6.53;;
69511;SDS011;70777;52.034;4.644;2023-11-21T09:02:33;18.05;;;6.95;;
69511;SDS011;70777;52.034;4.644;2023-11-21T09:05:02;19.67;;;7.63;;
69511;SDS011;70777;52.034;4.644;2023-11-21T09:07:31;14.13;;;7.00;;
69511;SDS011;70777;52.034;4.644;2023-11-21T09:09:57;20.25;;;7.72;;
69511;SDS011;70777;52.034;4.644;2023-11-21T09:12:25;15.98;;;7.50;;
69511;SDS011;70777;52.034;4.644;2023-11-21T09:14:51;18.17;;;7.43;;
69511;SDS011;70777;52.034;4.644;2023-11-21T09:17:16;18.42;;;7.75;;
69511;SDS011;70777;52.034;4.644;2023-11-21T09:19:42;20.10;;;7.50;;
69511;SDS011;70777;52.034;4.644;2023-11-21T09:22:10;19.67;;;8.13;;
69511;SDS011;70777;52.034;4.644;2023-11-21T09:24:36;18.60;;;8.52;;
69511;SDS011;70777;52.034;4.644;2023-11-21T09:27:02;18.92;;;7.40;;
69511;SDS011;70777;52.034;4.644;2023-11-21T09:29:28;19.10;;;7.50;;
69511;SDS011;70777;52.034;4.644;2023-11-21T09:31:55;21.02;;;7.25;;
69511;SDS011;70777;52.034;4.644;2023-11-21T09:34:24;17.00;;;6.90;;
69511;SDS011;70777;52.034;4.644;2023-11-21T09:36:50;17.00;;;6.95;;
69511;SDS011;70777;52.034;4.644;2023-11-21T09:39:19;15.25;;;5.53;;
69511;SDS011;70777;52.034;4.644;2023-11-21T09:41:51;19.73;;;6.15;;
69511;SDS011;70777;52.034;4.644;2023-11-21T09:44:22;13.32;;;5.38;;
69511;SDS011;70777;52.034;4.644;2023-11-21T09:47:11;13.43;;;5.47;;
69511;SDS011;70777;52.034;4.644;2023-11-21T09:49:42;10.95;;;4.70;;
69511;SDS011;70777;52.034;4.644;2023-11-21T09:52:12;11.52;;;4.95;;
69511;SDS011;70777;52.034;4.644;2023-11-21T09:54:43;12.00;;;5.32;;
69511;SDS011;70777;52.034;4.644;2023-11-21T09:57:12;15.90;;;5.65;;
69511;SDS011;70777;52.034;4.644;2023-11-21T09:59:39;13.97;;;5.80;;
69511;SDS011;70777;52.034;4.644;2023-11-21T10:02:05;11.97;;;5.10;;
69511;SDS011;70777;52.034;4.644;2023-11-21T10:04:35;10.48;;;4.82;;
69511;SDS011;70777;52.034;4.644;2023-11-21T10:07:01;9.87;;;4.70;;
69511;SDS011;70777;52.034;4.644;2023-11-21T10:09:28;14.68;;;5.95;;
69511;SDS011;70777;52.034;4.644;2023-11-21T10:11:54;11.88;;;5.30;;
69511;SDS011;70777;52.034;4.644;2023-11-21T10:14:21;11.07;;;4.68;;
69511;SDS011;70777;52.034;4.644;2023-11-21T10:16:49;10.23;;;4.88;;
69511;SDS011;70777;52.034;4.644;2023-11-21T10:19:15;10.85;;;5.10;;
69511;SDS011;70777;52.034;4.644;2023-11-21T10:21:42;13.20;;;5.95;;
69511;SDS011;70777;52.034;4.644;2023-11-21T10:24:07;11.80;;;5.15;;
69511;SDS011;70777;52.034;4.644;2023-11-21T10:26:33;11.65;;;4.95;;
69511;SDS011;70777;52.034;4.644;2023-11-21T10:28:59;12.57;;;5.15;;
69511;SDS011;70777;52.034;4.644;2023-11-21T10:31:28;14.75;;;5.50;;
69511;SDS011;70777;52.034;4.644;2023-11-21T10:33:56;12.15;;;5.70;;
69511;SDS011;70777;52.034;4.644;2023-11-21T10:36:37;11.75;;;5.75;;
69511;SDS011;70777;52.034;4.644;2023-11-21T10:39:03;13.48;;;5.15;;
69511;SDS011;70777;52.034;4.644;2023-11-21T10:41:28;9.38;;;5.15;;
69511;SDS011;70777;52.034;4.644;2023-11-21T10:43:54;11.38;;;5.00;;
69511;SDS011;70777;52.034;4.644;2023-11-21T10:46:21;14.00;;;5.73;;
69511;SDS011;70777;52.034;4.644;2023-11-21T10:51:20;11.80;;;5.70;;
69511;SDS011;70777;52.034;4.644;2023-11-21T10:53:46;14.83;;;6.43;;
69511;SDS011;70777;52.034;4.644;2023-11-21T10:56:13;17.48;;;6.82;;
69511;SDS011;70777;52.034;4.644;2023-11-21T10:58:45;15.50;;;6.43;;
69511;SDS011;70777;52.034;4.644;2023-11-21T11:01:11;18.35;;;5.97;;
69511;SDS011;70777;52.034;4.644;2023-11-21T11:03:45;13.27;;;6.90;;
69511;SDS011;70777;52.034;4.644;2023-11-21T11:06:11;18.05;;;7.30;;
69511;SDS011;70777;52.034;4.644;2023-11-21T11:08:37;15.82;;;6.78;;
69511;SDS011;70777;52.034;4.644;2023-11-21T11:11:04;15.85;;;7.00;;
69511;SDS011;70777;52.034;4.644;2023-11-21T11:13:30;15.25;;;6.93;;
69511;SDS011;70777;52.034;4.644;2023-11-21T11:16:03;16.33;;;6.82;;
69511;SDS011;70777;52.034;4.644;2023-11-21T11:18:32;16.98;;;7.07;;
69511;SDS011;70777;52.034;4.644;2023-11-21T11:24:16;13.38;;;6.72;;
69511;SDS011;70777;52.034;4.644;2023-11-21T11:38:21;15.10;;;6.05;;
69511;SDS011;70777;52.034;4.644;2023-11-21T11:40:48;15.57;;;6.85;;
69511;SDS011;70777;52.034;4.644;2023-11-21T11:43:27;15.35;;;6.53;;
69511;SDS011;70777;52.034;4.644;2023-11-21T11:45:56;14.90;;;6.97;;
69511;SDS011;70777;52.034;4.644;2023-11-21T11:48:26;18.17;;;6.85;;
69511;SDS011;70777;52.034;4.644;2023-11-21T11:51:04;14.70;;;5.63;;
69511;SDS011;70777;52.034;4.644;2023-11-21T11:53:40;11.88;;;5.47;;
69511;SDS011;70777;52.034;4.644;2023-11-21T11:58:55;12.75;;;5.43;;
69511;SDS011;70777;52.034;4.644;2023-11-21T12:01:22;12.82;;;5.28;;
69511;SDS011;70777;52.034;4.644;2023-11-21T12:06:34;12.80;;;5.60;;
69511;SDS011;70777;52.034;4.644;2023-11-21T12:09:02;11.50;;;5.25;;
69511;SDS011;70777;52.034;4.644;2023-11-21T12:11:33;12.23;;;5.75;;
69511;SDS011;70777;52.034;4.644;2023-11-21T12:14:01;11.02;;;4.78;;
69511;SDS011;70777;52.034;4.644;2023-11-21T12:16:27;14.27;;;5.83;;
69511;SDS011;70777;52.034;4.644;2023-11-21T12:18:53;13.93;;;6.00;;
69511;SDS011;70777;52.034;4.644;2023-11-21T12:21:19;16.55;;;6.78;;
69511;SDS011;70777;52.034;4.644;2023-11-21T12:23:45;14.10;;;6.13;;
69511;SDS011;70777;52.034;4.644;2023-11-21T12:26:12;15.68;;;6.43;;
69511;SDS011;70777;52.034;4.644;2023-11-21T12:28:38;15.95;;;6.20;;
69511;SDS011;70777;52.034;4.644;2023-11-21T12:31:04;17.45;;;7.60;;
69511;SDS011;70777;52.034;4.644;2023-11-21T12:35:57;14.70;;;6.93;;
69511;SDS011;70777;52.034;4.644;2023-11-21T12:38:23;13.52;;;7.03;;
69511;SDS011;70777;52.034;4.644;2023-11-21T12:40:49;12.43;;;5.82;;
69511;SDS011;70777;52.034;4.644;2023-11-21T12:43:19;15.02;;;7.47;;
69511;SDS011;70777;52.034;4.644;2023-11-21T12:45:44;15.07;;;6.15;;
69511;SDS011;70777;52.034;4.644;2023-11-21T12:48:10;11.65;;;5.68;;
69511;SDS011;70777;52.034;4.644;2023-11-21T12:50:36;10.88;;;5.60;;
69511;SDS011;70777;52.034;4.644;2023-11-21T12:53:09;12.48;;;5.55;;
69511;SDS011;70777;52.034;4.644;2023-11-21T12:55:39;12.43;;;6.10;;
69511;SDS011;70777;52.034;4.644;2023-11-21T12:58:08;11.15;;;6.13;;
69511;SDS011;70777;52.034;4.644;2023-11-21T13:00:35;11.90;;;5.63;;
69511;SDS011;70777;52.034;4.644;2023-11-21T13:03:12;12.00;;;5.40;;
69511;SDS011;70777;52.034;4.644;2023-11-21T13:05:44;11.15;;;5.80;;
69511;SDS011;70777;52.034;4.644;2023-11-21T13:08:12;12.68;;;5.45;;
69511;SDS011;70777;52.034;4.644;2023-11-21T13:10:44;11.07;;;5.93;;
69511;SDS011;70777;52.034;4.644;2023-11-21T13:13:12;9.32;;;5.03;;
69511;SDS011;70777;52.034;4.644;2023-11-21T13:15:48;11.70;;;5.45;;
69511;SDS011;70777;52.034;4.644;2023-11-21T13:18:15;10.43;;;5.18;;
69511;SDS011;70777;52.034;4.644;2023-11-21T13:20:41;15.70;;;5.88;;
69511;SDS011;70777;52.034;4.644;2023-11-21T13:23:08;12.32;;;6.78;;
69511;SDS011;70777;52.034;4.644;2023-11-21T13:25:35;17.88;;;10.18;;
69511;SDS011;70777;52.034;4.644;2023-11-21T13:28:02;11.20;;;5.82;;
69511;SDS011;70777;52.034;4.644;2023-11-21T13:30:27;13.93;;;6.30;;
69511;SDS011;70777;52.034;4.644;2023-11-21T13:33:00;12.30;;;6.50;;
69511;SDS011;70777;52.034;4.644;2023-11-21T13:35:34;13.65;;;6.20;;
69511;SDS011;70777;52.034;4.644;2023-11-21T13:38:04;12.27;;;6.80;;
69511;SDS011;70777;52.034;4.644;2023-11-21T13:40:31;13.07;;;6.28;;
69511;SDS011;70777;52.034;4.644;2023-11-21T13:42:59;10.80;;;5.43;;
69511;SDS011;70777;52.034;4.644;2023-11-21T13:45:26;13.40;;;6.25;;
69511;SDS011;70777;52.034;4.644;2023-11-21T13:47:53;12.65;;;6.20;;
69511;SDS011;70777;52.034;4.644;2023-11-21T13:50:27;13.60;;;6.75;;
69511;SDS011;70777;52.034;4.644;2023-11-21T13:52:59;17.25;;;7.10;;
69511;SDS011;70777;52.034;4.644;2023-11-21T13:55:37;17.27;;;7.32;;
69511;SDS011;70777;52.034;4.644;2023-11-21T13:58:04;15.43;;;7.65;;
69511;SDS011;70777;52.034;4.644;2023-11-21T14:00:34;16.65;;;7.43;;
69511;SDS011;70777;52.034;4.644;2023-11-21T14:03:21;15.82;;;7.53;;
69511;SDS011;70777;52.034;4.644;2023-11-21T14:05:48;15.67;;;7.23;;
69511;SDS011;70777;52.034;4.644;2023-11-21T14:08:22;14.32;;;6.82;;
69511;SDS011;70777;52.034;4.644;2023-11-21T14:13:20;14.88;;;7.60;;
69511;SDS011;70777;52.034;4.644;2023-11-21T14:15:48;15.02;;;7.30;;
69511;SDS011;70777;52.034;4.644;2023-11-21T14:18:16;16.08;;;7.20;;
69511;SDS011;70777;52.034;4.644;2023-11-21T14:20:42;15.48;;;8.18;;
69511;SDS011;70777;52.034;4.644;2023-11-21T14:23:09;14.93;;;7.63;;
69511;SDS011;70777;52.034;4.644;2023-11-21T14:25:35;15.43;;;8.23;;
69511;SDS011;70777;52.034;4.644;2023-11-21T14:28:02;16.02;;;7.47;;
69511;SDS011;70777;52.034;4.644;2023-11-21T14:30:28;14.77;;;7.32;;
69511;SDS011;70777;52.034;4.644;2023-11-21T14:32:58;17.80;;;7.85;;
69511;SDS011;70777;52.034;4.644;2023-11-21T14:35:24;16.30;;;8.35;;
69511;SDS011;70777;52.034;4.644;2023-11-21T14:37:49;14.77;;;7.03;;
69511;SDS011;70777;52.034;4.644;2023-11-21T14:40:15;15.68;;;7.93;;
69511;SDS011;70777;52.034;4.644;2023-11-21T14:42:41;14.35;;;8.00;;
69511;SDS011;70777;52.034;4.644;2023-11-21T14:45:08;18.23;;;7.68;;
69511;SDS011;70777;52.034;4.644;2023-11-21T14:47:37;17.95;;;7.90;;
69511;SDS011;70777;52.034;4.644;2023-11-21T14:50:07;16.75;;;7.53;;
69511;SDS011;70777;52.034;4.644;2023-11-21T14:52:54;16.60;;;8.90;;
69511;SDS011;70777;52.034;4.644;2023-11-21T14:55:24;17.75;;;8.05;;
69511;SDS011;70777;52.034;4.644;2023-11-21T14:58:09;17.75;;;8.10;;
69511;SDS011;70777;52.034;4.644;2023-11-21T15:00:38;15.38;;;8.73;;
69511;SDS011;70777;52.034;4.644;2023-11-21T15:03:11;13.27;;;8.13;;
69511;SDS011;70777;52.034;4.644;2023-11-21T15:05:57;16.02;;;9.18;;